McKenna, Washington
Current Conditions -  °F | °C
As of 10:58 AM on Thursday 30 Oct 2014 (Local Time) from KGRF Reporting Station
Light Rain Light Rain  
Wind Chill: 54°   Ceiling: 5500
Heat Index: 54°   Visibility: 10mi
Dew Point: 53°   Wind: 2mph
Humidity: 99%   Direction: 330°NNW
Pressure: 29.84"   Gusts: NA
Location:  46.93°N, 122.56°W
Report Text: KGRF 301758Z AUTO 33002KT 10SM -RA FEW003 BKN055 BKN090 12/12 A2984 RMK AO2 SLP109 P0000 60006 T01210119 10121 20111 58003 $
Loading
Personal Weather Stations






























Interactive Weather Map
Tropical Storm Tracking
New forecast layout! Learn more

10-Day Weather Forecast

Advertisements
Track Severe Weather on mobile